Time,TemperatureF,DewpointF,PressureIn,WindDirection,WindDirectionDegrees,WindSpeedMPH,WindSpeedGustMPH,Humidity,HourlyPrecipIn,Conditions,Clouds,dailyrainin,SolarRadiationWatts/m^2,SoftwareType,DateUTC
2013-06-13 00:01:00,66.0,63.0,-100.00,North,358,6.0,12.0,90,0.08,,,0.11,5.000000,,2013-06-13 00:01:00,
2013-06-13 00:12:00,64.0,63.0,-100.00,NE,55,4.0,13.0,95,0.28,,,-99.99,9.000000,,2013-06-13 00:12:00,
2013-06-13 00:33:00,64.0,63.0,-100.00,NE,55,4.0,13.0,95,0.28,,,-99.99,9.000000,,2013-06-13 00:33:00,
2013-06-13 00:43:00,64.0,63.0,-100.00,NE,55,4.0,13.0,95,0.28,,,-99.99,9.000000,,2013-06-13 00:43:00,
2013-06-13 00:52:00,64.0,63.0,-100.00,NE,55,4.0,13.0,95,0.28,,,-99.99,9.000000,,2013-06-13 00:52:00,
2013-06-13 01:01:00,64.0,63.0,-100.00,NE,55,4.0,13.0,95,0.28,,,-99.99,9.000000,,2013-06-13 01:01:00,
2013-06-13 01:12:00,62.0,60.0,-100.00,ENE,66,2.0,11.0,92,0.00,,,0.39,23.000000,,2013-06-13 01:12:00,
2013-06-13 01:33:00,62.0,60.0,-100.00,ENE,66,2.0,11.0,92,0.00,,,0.39,23.000000,,2013-06-13 01:33:00,
2013-06-13 01:43:00,62.0,60.0,-100.00,ENE,66,2.0,11.0,92,0.00,,,0.39,23.000000,,2013-06-13 01:43:00,
2013-06-13 01:53:00,62.0,60.0,-100.00,ENE,66,2.0,11.0,92,0.00,,,0.39,23.000000,,2013-06-13 01:53:00,
2013-06-13 02:02:00,62.0,60.0,-100.00,ENE,66,2.0,11.0,92,0.00,,,0.39,23.000000,,2013-06-13 02:02:00,
2013-06-13 02:12:00,61.0,60.0,-100.00,NNW,346,0.0,6.0,95,0.00,,,0.39,3.000000,,2013-06-13 02:12:00,
2013-06-13 02:33:00,61.0,60.0,-100.00,NNW,346,0.0,6.0,95,0.00,,,0.39,3.000000,,2013-06-13 02:33:00,
2013-06-13 02:43:00,61.0,60.0,-100.00,NNW,346,0.0,6.0,95,0.00,,,0.39,3.000000,,2013-06-13 02:43:00,
2013-06-13 02:52:00,61.0,60.0,-100.00,NNW,346,0.0,6.0,95,0.00,,,0.39,3.000000,,2013-06-13 02:52:00,
2013-06-13 03:02:00,61.0,60.0,-100.00,NNW,346,0.0,6.0,95,0.00,,,0.39,3.000000,,2013-06-13 03:02:00,
2013-06-13 03:33:00,60.0,57.0,-100.00,North,352,4.0,8.0,89,0.00,,,0.39,0.000000,,2013-06-13 03:33:00,
2013-06-13 03:43:00,60.0,57.0,-100.00,North,352,4.0,8.0,89,0.00,,,0.39,0.000000,,2013-06-13 03:43:00,
2013-06-13 03:52:00,60.0,57.0,-100.00,North,352,4.0,8.0,89,0.00,,,0.39,0.000000,,2013-06-13 03:52:00,
2013-06-13 04:01:00,60.0,57.0,-100.00,North,352,4.0,8.0,89,0.00,,,0.39,0.000000,,2013-06-13 04:01:00,
2013-06-13 04:11:00,60.0,57.0,-100.00,North,352,4.0,8.0,89,0.00,,,0.39,0.000000,,2013-06-13 04:11:00,
2013-06-13 04:12:00,59.0,57.0,-100.00,NE,44,1.0,6.0,93,0.00,,,0.39,0.000000,,2013-06-13 04:12:00,
2013-06-13 04:33:00,59.0,57.0,-100.00,NE,44,1.0,6.0,93,0.00,,,0.39,0.000000,,2013-06-13 04:33:00,
2013-06-13 04:43:00,59.0,57.0,-100.00,NE,44,1.0,6.0,93,0.00,,,0.39,0.000000,,2013-06-13 04:43:00,
2013-06-13 04:54:00,59.0,57.0,-100.00,NE,44,1.0,6.0,93,0.00,,,0.39,0.000000,,2013-06-13 04:54:00,
2013-06-13 05:02:00,59.0,57.0,-100.00,NE,44,1.0,6.0,93,0.00,,,0.39,0.000000,,2013-06-13 05:02:00,
2013-06-13 05:33:00,59.0,55.0,-100.00,North,6,2.0,7.0,88,0.00,,,0.39,0.000000,,2013-06-13 05:33:00,
2013-06-13 05:43:00,59.0,55.0,-100.00,North,6,2.0,7.0,88,0.00,,,0.39,0.000000,,2013-06-13 05:43:00,
2013-06-13 05:53:00,59.0,55.0,-100.00,North,6,2.0,7.0,88,0.00,,,0.39,0.000000,,2013-06-13 05:53:00,
2013-06-13 06:02:00,59.0,55.0,-100.00,North,6,2.0,7.0,88,0.00,,,0.39,0.000000,,2013-06-13 06:02:00,
2013-06-13 06:11:00,59.0,55.0,-100.00,North,6,2.0,7.0,88,0.00,,,0.39,0.000000,,2013-06-13 06:11:00,
2013-06-13 06:33:00,59.0,56.0,-100.00,North,358,2.0,6.0,90,0.00,,,0.39,0.000000,,2013-06-13 06:33:00,
2013-06-13 06:44:00,59.0,56.0,-100.00,North,358,2.0,6.0,90,0.00,,,0.39,0.000000,,2013-06-13 06:44:00,
2013-06-13 06:52:00,59.0,56.0,-100.00,North,358,2.0,6.0,90,0.00,,,0.39,0.000000,,2013-06-13 06:52:00,
2013-06-13 07:01:00,59.0,56.0,-100.00,North,358,2.0,6.0,90,0.00,,,0.39,0.000000,,2013-06-13 07:01:00,
2013-06-13 07:11:00,59.0,56.0,-100.00,North,358,2.0,6.0,90,0.00,,,0.39,0.000000,,2013-06-13 07:11:00,
2013-06-13 07:33:00,60.0,56.0,-100.00,North,349,3.0,7.0,88,0.00,,,0.39,0.000000,,2013-06-13 07:33:00,
2013-06-13 07:42:00,60.0,56.0,-100.00,North,349,3.0,7.0,88,0.00,,,0.39,0.000000,,2013-06-13 07:42:00,
2013-06-13 07:52:00,60.0,56.0,-100.00,North,349,3.0,7.0,88,0.00,,,0.39,0.000000,,2013-06-13 07:52:00,
2013-06-13 08:01:00,60.0,56.0,-100.00,North,349,3.0,7.0,88,0.00,,,0.39,0.000000,,2013-06-13 08:01:00,
2013-06-13 08:11:00,60.0,56.0,-100.00,North,349,3.0,7.0,88,0.00,,,0.39,0.000000,,2013-06-13 08:11:00,
2013-06-13 08:12:00,61.0,55.0,-100.00,North,353,3.0,7.0,81,0.00,,,0.39,0.000000,,2013-06-13 08:12:00,
2013-06-13 08:32:00,61.0,55.0,-100.00,North,353,3.0,7.0,81,0.00,,,0.39,0.000000,,2013-06-13 08:32:00,
2013-06-13 08:43:00,61.0,55.0,-100.00,North,353,3.0,7.0,81,0.00,,,0.39,0.000000,,2013-06-13 08:43:00,
2013-06-13 08:52:00,61.0,55.0,-100.00,North,353,3.0,7.0,81,0.00,,,0.39,0.000000,,2013-06-13 08:52:00,
2013-06-13 09:02:00,61.0,55.0,-100.00,North,353,3.0,7.0,81,0.00,,,0.39,0.000000,,2013-06-13 09:02:00,
2013-06-13 09:32:00,57.0,55.0,-100.00,West,270,0.0,5.0,94,0.00,,,0.37,0.000000,,2013-06-13 09:32:00,
2013-06-13 09:42:00,57.0,55.0,-100.00,West,270,0.0,5.0,94,0.00,,,0.37,0.000000,,2013-06-13 09:42:00,
2013-06-13 09:52:00,57.0,55.0,-100.00,West,270,0.0,5.0,94,0.00,,,0.37,0.000000,,2013-06-13 09:52:00,
2013-06-13 10:01:00,57.0,55.0,-100.00,West,270,0.0,5.0,94,0.00,,,0.37,0.000000,,2013-06-13 10:01:00,
2013-06-13 10:11:00,57.0,55.0,-100.00,West,270,0.0,5.0,94,0.00,,,0.37,0.000000,,2013-06-13 10:11:00,
2013-06-13 10:33:00,59.0,55.0,-100.00,North,356,1.0,6.0,86,0.00,,,0.36,1.000000,,2013-06-13 10:33:00,
2013-06-13 10:43:00,59.0,55.0,-100.00,North,356,1.0,6.0,86,0.00,,,0.36,1.000000,,2013-06-13 10:43:00,
2013-06-13 10:53:00,59.0,55.0,-100.00,North,356,1.0,6.0,86,0.00,,,0.36,1.000000,,2013-06-13 10:53:00,
2013-06-13 11:02:00,59.0,55.0,-100.00,North,356,1.0,6.0,86,0.00,,,0.36,1.000000,,2013-06-13 11:02:00,
2013-06-13 11:11:00,59.0,55.0,-100.00,North,356,1.0,6.0,86,0.00,,,0.36,1.000000,,2013-06-13 11:11:00,
2013-06-13 11:32:00,60.0,56.0,-100.00,NNW,344,2.0,7.0,86,0.00,,,0.36,24.000000,,2013-06-13 11:32:00,
2013-06-13 11:42:00,60.0,56.0,-100.00,NNW,344,2.0,7.0,86,0.00,,,0.36,24.000000,,2013-06-13 11:42:00,
2013-06-13 11:52:00,60.0,56.0,-100.00,NNW,344,2.0,7.0,86,0.00,,,0.36,24.000000,,2013-06-13 11:52:00,
2013-06-13 12:01:00,60.0,56.0,-100.00,NNW,344,2.0,7.0,86,0.00,,,0.36,24.000000,,2013-06-13 12:01:00,
2013-06-13 12:11:00,60.0,56.0,-100.00,NNW,344,2.0,7.0,86,0.00,,,0.36,24.000000,,2013-06-13 12:11:00,
2013-06-13 12:35:00,65.0,56.0,-100.00,North,353,5.0,10.0,72,0.00,,,0.36,165.000000,,2013-06-13 12:35:00,
2013-06-13 12:43:00,65.0,56.0,-100.00,North,353,5.0,10.0,72,0.00,,,0.36,165.000000,,2013-06-13 12:43:00,
2013-06-13 12:52:00,65.0,56.0,-100.00,North,353,5.0,10.0,72,0.00,,,0.36,165.000000,,2013-06-13 12:52:00,
2013-06-13 13:01:00,65.0,56.0,-100.00,North,353,5.0,10.0,72,0.00,,,0.36,165.000000,,2013-06-13 13:01:00,
2013-06-13 13:11:00,65.0,56.0,-100.00,North,353,5.0,10.0,72,0.00,,,0.36,165.000000,,2013-06-13 13:11:00,
2013-06-13 13:33:00,67.0,55.0,-100.00,NNE,14,4.0,13.0,65,0.00,,,0.36,344.000000,,2013-06-13 13:33:00,
2013-06-13 13:43:00,67.0,55.0,-100.00,NNE,14,4.0,13.0,65,0.00,,,0.36,344.000000,,2013-06-13 13:43:00,
2013-06-13 13:53:00,67.0,55.0,-100.00,NNE,14,4.0,13.0,65,0.00,,,0.36,344.000000,,2013-06-13 13:53:00,
2013-06-13 14:02:00,67.0,55.0,-100.00,NNE,14,4.0,13.0,65,0.00,,,0.36,344.000000,,2013-06-13 14:02:00,
2013-06-13 14:11:00,67.0,55.0,-100.00,NNE,14,4.0,13.0,65,0.00,,,0.36,344.000000,,2013-06-13 14:11:00,
2013-06-13 14:12:00,69.0,55.0,-100.00,North,2,6.0,13.0,60,0.00,,,0.36,503.000000,,2013-06-13 14:12:00,
2013-06-13 14:33:00,69.0,55.0,-100.00,North,2,6.0,13.0,60,0.00,,,0.36,503.000000,,2013-06-13 14:33:00,
2013-06-13 14:43:00,69.0,55.0,-100.00,North,2,6.0,13.0,60,0.00,,,0.36,503.000000,,2013-06-13 14:43:00,
2013-06-13 14:53:00,69.0,55.0,-100.00,North,2,6.0,13.0,60,0.00,,,0.36,503.000000,,2013-06-13 14:53:00,
2013-06-13 15:02:00,69.0,55.0,-100.00,North,2,6.0,13.0,60,0.00,,,0.36,503.000000,,2013-06-13 15:02:00,
2013-06-13 15:12:00,72.0,55.0,-100.00,NNW,348,5.0,12.0,56,0.00,,,0.36,684.000000,,2013-06-13 15:12:00,
2013-06-13 15:33:00,72.0,55.0,-100.00,NNW,348,5.0,12.0,56,0.00,,,0.36,684.000000,,2013-06-13 15:33:00,
2013-06-13 15:43:00,72.0,55.0,-100.00,NNW,348,5.0,12.0,56,0.00,,,0.36,684.000000,,2013-06-13 15:43:00,
2013-06-13 15:53:00,72.0,55.0,-100.00,NNW,348,5.0,12.0,56,0.00,,,0.36,684.000000,,2013-06-13 15:53:00,
2013-06-13 16:02:00,72.0,55.0,-100.00,NNW,348,5.0,12.0,56,0.00,,,0.36,684.000000,,2013-06-13 16:02:00,
2013-06-13 16:33:00,74.0,55.0,-100.00,NNW,345,7.0,13.0,52,0.00,,,0.36,793.000000,,2013-06-13 16:33:00,
2013-06-13 16:43:00,74.0,55.0,-100.00,NNW,345,7.0,13.0,52,0.00,,,0.36,793.000000,,2013-06-13 16:43:00,
2013-06-13 16:53:00,74.0,55.0,-100.00,NNW,345,7.0,13.0,52,0.00,,,0.36,793.000000,,2013-06-13 16:53:00,
2013-06-13 17:02:00,74.0,55.0,-100.00,NNW,345,7.0,13.0,52,0.00,,,0.36,793.000000,,2013-06-13 17:02:00,
2013-06-13 17:11:00,74.0,55.0,-100.00,NNW,345,7.0,13.0,52,0.00,,,0.36,793.000000,,2013-06-13 17:11:00,
2013-06-13 17:33:00,75.0,54.0,-100.00,NNW,334,8.0,18.0,48,0.00,,,0.36,795.000000,,2013-06-13 17:33:00,
2013-06-13 17:43:00,75.0,54.0,-100.00,NNW,334,8.0,18.0,48,0.00,,,0.36,795.000000,,2013-06-13 17:43:00,
2013-06-13 17:53:00,75.0,54.0,-100.00,NNW,334,8.0,18.0,48,0.00,,,0.36,795.000000,,2013-06-13 17:53:00,
2013-06-13 18:02:00,75.0,54.0,-100.00,NNW,334,8.0,18.0,48,0.00,,,0.36,795.000000,,2013-06-13 18:02:00,
2013-06-13 18:11:00,75.0,54.0,-100.00,NNW,334,8.0,18.0,48,0.00,,,0.36,795.000000,,2013-06-13 18:11:00,
2013-06-13 18:33:00,76.0,52.0,-100.00,North,2,6.0,16.0,44,0.00,,,0.36,946.000000,,2013-06-13 18:33:00,
2013-06-13 18:43:00,76.0,52.0,-100.00,North,2,6.0,16.0,44,0.00,,,0.36,946.000000,,2013-06-13 18:43:00,
2013-06-13 18:52:00,76.0,52.0,-100.00,North,2,6.0,16.0,44,0.00,,,0.36,946.000000,,2013-06-13 18:52:00,
2013-06-13 19:01:00,76.0,52.0,-100.00,North,2,6.0,16.0,44,0.00,,,0.36,946.000000,,2013-06-13 19:01:00,
2013-06-13 19:11:00,76.0,52.0,-100.00,North,2,6.0,16.0,44,0.00,,,0.36,946.000000,,2013-06-13 19:11:00,
2013-06-13 19:33:00,75.0,53.0,-100.00,North,359,6.0,18.0,46,0.00,,,0.36,933.000000,,2013-06-13 19:33:00,
2013-06-13 19:43:00,75.0,53.0,-100.00,North,359,6.0,18.0,46,0.00,,,0.36,933.000000,,2013-06-13 19:43:00,
2013-06-13 19:53:00,75.0,53.0,-100.00,North,359,6.0,18.0,46,0.00,,,0.36,933.000000,,2013-06-13 19:53:00,
2013-06-13 20:02:00,75.0,53.0,-100.00,North,359,6.0,18.0,46,0.00,,,0.36,933.000000,,2013-06-13 20:02:00,
2013-06-13 20:11:00,75.0,53.0,-100.00,North,359,6.0,18.0,46,0.00,,,0.36,933.000000,,2013-06-13 20:11:00,
2013-06-13 20:33:00,75.0,53.0,-100.00,North,355,5.0,14.0,46,0.00,,,0.36,549.000000,,2013-06-13 20:33:00,
2013-06-13 20:44:00,75.0,53.0,-100.00,North,355,5.0,14.0,46,0.00,,,0.36,549.000000,,2013-06-13 20:44:00,
2013-06-13 20:53:00,75.0,53.0,-100.00,North,355,5.0,14.0,46,0.00,,,0.36,549.000000,,2013-06-13 20:53:00,
2013-06-13 21:02:00,75.0,53.0,-100.00,North,355,5.0,14.0,46,0.00,,,0.36,549.000000,,2013-06-13 21:02:00,
2013-06-13 21:11:00,75.0,53.0,-100.00,North,355,5.0,14.0,46,0.00,,,0.36,549.000000,,2013-06-13 21:11:00,
2013-06-13 21:34:00,75.0,51.0,-100.00,North,355,6.0,13.0,43,0.00,,,0.36,600.000000,,2013-06-13 21:34:00,
2013-06-13 21:43:00,75.0,51.0,-100.00,North,355,6.0,13.0,43,0.00,,,0.36,600.000000,,2013-06-13 21:43:00,
2013-06-13 21:52:00,75.0,51.0,-100.00,North,355,6.0,13.0,43,0.00,,,0.36,600.000000,,2013-06-13 21:52:00,
2013-06-13 22:02:00,75.0,51.0,-100.00,North,355,6.0,13.0,43,0.00,,,0.36,600.000000,,2013-06-13 22:02:00,
2013-06-13 22:11:00,75.0,51.0,-100.00,North,355,6.0,13.0,43,0.00,,,0.36,600.000000,,2013-06-13 22:11:00,
2013-06-13 22:33:00,75.0,52.0,-100.00,North,349,4.0,14.0,45,0.00,,,0.36,373.000000,,2013-06-13 22:33:00,
2013-06-13 22:43:00,75.0,52.0,-100.00,North,349,4.0,14.0,45,0.00,,,0.36,373.000000,,2013-06-13 22:43:00,
2013-06-13 22:52:00,75.0,52.0,-100.00,North,349,4.0,14.0,45,0.00,,,0.36,373.000000,,2013-06-13 22:52:00,
2013-06-13 23:02:00,75.0,52.0,-100.00,North,349,4.0,14.0,45,0.00,,,0.36,373.000000,,2013-06-13 23:02:00,
2013-06-13 23:11:00,75.0,52.0,-100.00,North,349,4.0,14.0,45,0.00,,,0.36,373.000000,,2013-06-13 23:11:00,
2013-06-13 23:12:00,73.0,52.0,-100.00,North,6,4.0,10.0,47,0.00,,,0.28,258.000000,,2013-06-13 23:12:00,
2013-06-13 23:32:00,73.0,52.0,-100.00,North,6,4.0,10.0,47,0.00,,,0.28,258.000000,,2013-06-13 23:32:00,
2013-06-13 23:43:00,73.0,52.0,-100.00,North,6,4.0,10.0,47,0.00,,,0.28,258.000000,,2013-06-13 23:43:00,
2013-06-13 23:52:00,73.0,52.0,-100.00,North,6,4.0,10.0,47,0.00,,,0.28,258.000000,,2013-06-13 23:52:00,